Terminal Aerodrome Forecast
Issued by NWS

Home | Current Version | Previous Version | Text Only | Print | Product List | Glossary On
Versions: 1 2 3 4 5 6 7 8 9 10 11 12 13 14 15 16 17 18 19 20
000
FTUS46 KLOX 190315 AAE
TAFSBP
TAF AMD
KSBP 190315Z 1903/1924 15010KT 6SM -SHRA SCT025 OVC050
     FM190400 15015G25KT 6SM -SHRA BR SCT025 OVC050
     FM190600 14018G28KT 3SM RA BR BKN012 OVC025
     FM191000 16012KT 2SM TSRA BR BKN007 OVC015CB
     FM191200 22014G22KT P6SM -SHRA BKN025 BKN050
     FM191800 29010KT P6SM -SHRA BKN025 BKN050=

USA.gov is the U.S. government's official web portal to all federal, state and local government web resources and services.